Time;durP1;ratioP1;P1;durP2;ratioP2;P2;SDS_P1;SDS_P2;PMS_P1;PMS_P2;Temp;Humidity;BMP_temperature;BMP_pressure;BME280_temperature;BME280_humidity;BME280_pressure;Samples;Min_cycle;Max_cycle;Signal;HPM_P1;HPM_P2
2022/01/07 00:00:13;;;;;;;;;;;-0.30;99.90;;;;;;4980647;28;19975;-81
2022/01/07 00:02:41;;;;;;;;;;;-0.10;99.90;;;;;;4988312;28;20423;-82
2022/01/07 00:05:10;;;;;;;;;;;-0.20;99.90;;;;;;4992242;28;19986;-81
2022/01/07 00:07:38;;;;;;;;;;;-0.30;99.90;;;;;;4982444;28;19952;-80
2022/01/07 00:10:06;;;;;;;;;;;-0.20;99.90;;;;;;4980925;28;19926;-80
2022/01/07 00:12:33;;;;;;;;;;;-0.10;99.90;;;;;;4980250;28;19933;-83
2022/01/07 00:15:00;;;;;;;;;;;-0.30;99.90;;;;;;4984204;28;19937;-81
2022/01/07 00:17:26;;;;;;;;;;;0.20;99.90;;;;;;4980281;28;19926;-83
2022/01/07 00:19:53;;;;;;;;;;;-0.40;99.90;;;;;;4978548;28;19980;-83
2022/01/07 00:22:21;;;;;;;;;;;-0.20;99.90;;;;;;4979127;28;19926;-82
2022/01/07 00:24:48;;;;;;;;;;;-0.20;99.90;;;;;;4979746;28;19926;-83
2022/01/07 00:27:14;;;;;;;;;;;-0.10;99.90;;;;;;4978227;28;19948;-81
2022/01/07 00:29:41;;;;;;;;;;;-0.20;99.90;;;;;;4978716;28;19973;-83
2022/01/07 00:32:07;;;;;;;;;;;-0.40;99.90;;;;;;4978414;28;19926;-82
2022/01/07 00:34:34;;;;;;;;;;;-0.30;99.90;;;;;;4978505;28;19976;-82
2022/01/07 00:37:01;;;;;;;;;;;-0.20;99.90;;;;;;4978381;28;19926;-82
2022/01/07 00:39:28;;;;;;;;;;;-0.30;99.90;;;;;;4977270;28;19984;-82
2022/01/07 00:41:55;;;;;;;;;;;-0.20;99.90;;;;;;4978317;28;19926;-82
2022/01/07 00:44:21;;;;;;;;;;;-0.30;99.90;;;;;;4977116;28;19926;-82
2022/01/07 00:46:48;;;;;;;;;;;-0.10;99.90;;;;;;4977000;28;19969;-82
2022/01/07 00:49:21;;;;;;;;;;;-0.30;99.90;;;;;;4977446;28;19926;-82
2022/01/07 00:51:47;;;;;;;;;;;-0.20;99.90;;;;;;4979326;28;19933;-81
2022/01/07 00:54:14;;;;;;;;;;;-0.50;99.90;;;;;;4985599;28;19933;-79
2022/01/07 00:56:42;;;;;;;;;;;0.10;99.90;;;;;;4990050;28;19984;-79
2022/01/07 00:59:08;;;;;;;;;;;-0.10;99.90;;;;;;4981648;28;19926;-81
2022/01/07 01:01:35;;;;;;;;;;;-0.10;99.90;;;;;;4979054;28;19926;-82
2022/01/07 01:04:01;;;;;;;;;;;-0.10;99.90;;;;;;4978244;28;19927;-81
2022/01/07 01:06:28;;;;;;;;;;;-0.10;99.90;;;;;;4977860;28;19961;-81
2022/01/07 01:08:54;;;;;;;;;;;-0.70;99.90;;;;;;4977581;28;19926;-82
2022/01/07 01:11:21;;;;;;;;;;;0.00;99.90;;;;;;4977467;28;19933;-82
2022/01/07 01:13:49;;;;;;;;;;;-0.20;99.90;;;;;;4977763;28;19969;-81
2022/01/07 01:16:15;;;;;;;;;;;-0.30;99.90;;;;;;4976978;28;19953;-82
2022/01/07 01:18:42;;;;;;;;;;;1.00;99.90;;;;;;4977373;28;19984;-81
2022/01/07 01:21:08;;;;;;;;;;;0.00;99.90;;;;;;4977341;28;19992;-82
2022/01/07 01:23:34;;;;;;;;;;;-0.10;99.90;;;;;;4987111;28;19926;-80
2022/01/07 01:26:01;;;;;;;;;;;0.20;99.90;;;;;;4988761;28;19933;-79
2022/01/07 01:28:27;;;;;;;;;;;-0.30;99.90;;;;;;4989198;28;19933;-79
2022/01/07 01:30:55;;;;;;;;;;;-0.40;99.90;;;;;;4990367;28;19926;-79
2022/01/07 01:33:22;;;;;;;;;;;-0.20;99.90;;;;;;4985451;28;20315;-81
2022/01/07 01:35:48;;;;;;;;;;;-0.50;99.90;;;;;;4987841;28;20368;-80
2022/01/07 01:38:14;;;;;;;;;;;-0.50;99.90;;;;;;4988226;28;19926;-80
2022/01/07 01:40:41;;;;;;;;;;;-0.50;99.90;;;;;;4988034;28;19949;-80
2022/01/07 01:43:07;;;;;;;;;;;-0.40;99.90;;;;;;4995956;28;19910;-81
2022/01/07 01:45:34;;;;;;;;;;;-0.20;99.90;;;;;;4995314;28;19927;-80
2022/01/07 01:48:01;;;;;;;;;;;-0.40;99.90;;;;;;4980146;28;19930;-81
2022/01/07 01:50:28;;;;;;;;;;;-0.50;99.90;;;;;;4988288;28;19952;-78
2022/01/07 01:52:56;;;;;;;;;;;-0.50;99.90;;;;;;4997887;28;19914;-81
2022/01/07 01:55:24;;;;;;;;;;;-0.20;99.90;;;;;;4979744;28;19933;-83
2022/01/07 01:57:52;;;;;;;;;;;-0.70;99.90;;;;;;4976536;28;19962;-81
2022/01/07 02:00:19;;;;;;;;;;;-0.40;99.90;;;;;;4977297;28;19993;-81
2022/01/07 02:02:46;;;;;;;;;;;-0.40;99.90;;;;;;4976811;28;19968;-82
2022/01/07 02:05:14;;;;;;;;;;;-0.30;99.90;;;;;;4980534;28;20387;-80
2022/01/07 02:07:41;;;;;;;;;;;-0.10;99.90;;;;;;4986862;28;19930;-80
2022/01/07 02:10:08;;;;;;;;;;;-0.10;99.90;;;;;;4984737;28;19952;-81
2022/01/07 02:12:35;;;;;;;;;;;-0.40;99.90;;;;;;4977972;28;19934;-81
2022/01/07 02:15:01;;;;;;;;;;;-0.40;99.90;;;;;;4978804;28;19961;-82
2022/01/07 02:17:28;;;;;;;;;;;-0.30;99.90;;;;;;4976590;28;19954;-82
2022/01/07 02:19:56;;;;;;;;;;;-0.40;99.90;;;;;;4977163;28;19973;-82
2022/01/07 02:22:23;;;;;;;;;;;-0.60;99.90;;;;;;4978506;28;19952;-80
2022/01/07 02:24:50;;;;;;;;;;;-0.50;99.90;;;;;;4980674;28;19997;-82
2022/01/07 02:27:17;;;;;;;;;;;-0.60;99.90;;;;;;4984226;28;19933;-80
2022/01/07 02:29:45;;;;;;;;;;;-0.60;99.90;;;;;;4989684;28;19921;-81
2022/01/07 02:32:11;;;;;;;;;;;-0.80;99.90;;;;;;4989108;28;19935;-81
2022/01/07 02:34:38;;;;;;;;;;;-0.70;99.90;;;;;;4985594;28;19926;-81
2022/01/07 02:37:06;;;;;;;;;;;-0.40;99.90;;;;;;4985719;28;19926;-79
2022/01/07 02:39:33;;;;;;;;;;;-0.20;99.90;;;;;;4983554;28;19961;-80
2022/01/07 02:41:59;;;;;;;;;;;-0.90;99.90;;;;;;4980273;28;20377;-79
2022/01/07 02:44:27;;;;;;;;;;;-0.70;99.90;;;;;;4977706;28;20411;-79
2022/01/07 02:46:53;;;;;;;;;;;-0.60;99.90;;;;;;4979418;28;20001;-79
2022/01/07 02:49:20;;;;;;;;;;;-0.50;99.90;;;;;;4979665;28;19965;-78
2022/01/07 02:51:46;;;;;;;;;;;-0.50;99.90;;;;;;4981121;28;19926;-78
2022/01/07 02:54:14;;;;;;;;;;;-0.70;99.90;;;;;;4983581;28;19926;-82
2022/01/07 02:56:41;;;;;;;;;;;-0.30;99.90;;;;;;4981751;28;19930;-82
2022/01/07 02:59:08;;;;;;;;;;;-0.70;99.90;;;;;;4978869;28;19926;-81
2022/01/07 03:01:35;;;;;;;;;;;-0.40;99.90;;;;;;4978047;28;19973;-84
2022/01/07 03:04:02;;;;;;;;;;;-0.50;99.90;;;;;;4976973;28;19948;-79
2022/01/07 03:06:28;;;;;;;;;;;-0.80;99.90;;;;;;4976159;28;20416;-80
2022/01/07 03:08:55;;;;;;;;;;;-1.10;99.90;;;;;;4974551;28;19930;-81
2022/01/07 03:11:24;;;;;;;;;;;-0.50;99.90;;;;;;4989966;28;19926;-82
2022/01/07 03:13:50;;;;;;;;;;;-0.90;99.90;;;;;;4988964;28;19930;-82
2022/01/07 03:16:17;;;;;;;;;;;-0.40;99.90;;;;;;4981454;28;19926;-82
2022/01/07 03:18:43;;;;;;;;;;;-0.50;99.90;;;;;;4977707;28;19926;-82
2022/01/07 03:21:10;;;;;;;;;;;-0.50;99.90;;;;;;4976632;28;19961;-82
2022/01/07 03:23:38;;;;;;;;;;;-0.30;99.90;;;;;;4975980;28;19966;-82
2022/01/07 03:26:05;;;;;;;;;;;-0.60;99.90;;;;;;4975145;28;19930;-82
2022/01/07 03:28:32;;;;;;;;;;;-0.50;99.90;;;;;;4975280;28;19976;-82
2022/01/07 03:30:59;;;;;;;;;;;-0.50;99.90;;;;;;4975223;28;19926;-81
2022/01/07 03:33:25;;;;;;;;;;;-0.50;99.90;;;;;;4975035;28;19983;-82
2022/01/07 03:35:52;;;;;;;;;;;-0.50;99.90;;;;;;4975842;28;19975;-81
2022/01/07 03:38:19;;;;;;;;;;;-0.80;99.90;;;;;;4975877;28;19933;-82
2022/01/07 03:40:46;;;;;;;;;;;-0.60;99.90;;;;;;4977711;28;20344;-82
2022/01/07 03:43:13;;;;;;;;;;;-0.60;99.90;;;;;;4984938;28;19972;-80
2022/01/07 03:45:40;;;;;;;;;;;-0.60;99.90;;;;;;4985455;28;19934;-80
2022/01/07 03:48:07;;;;;;;;;;;-0.40;99.90;;;;;;4986303;28;20372;-79
2022/01/07 03:50:34;;;;;;;;;;;-0.60;99.90;;;;;;4986371;28;19926;-78
2022/01/07 03:53:00;;;;;;;;;;;-0.60;99.90;;;;;;4979702;28;19976;-83
2022/01/07 03:55:28;;;;;;;;;;;-0.20;99.90;;;;;;4978168;28;19933;-82
2022/01/07 03:57:55;;;;;;;;;;;-0.40;99.90;;;;;;4977625;28;20343;-81
2022/01/07 04:00:23;;;;;;;;;;;-0.40;99.90;;;;;;4983063;28;19926;-79
2022/01/07 04:02:50;;;;;;;;;;;-0.40;99.90;;;;;;4983680;28;19926;-81
2022/01/07 04:05:20;;;;;;;;;;;-0.50;99.90;;;;;;4984308;28;19926;-80
2022/01/07 04:07:47;;;;;;;;;;;-0.20;99.90;;;;;;4984138;28;19976;-81
2022/01/07 04:10:14;;;;;;;;;;;-0.40;99.90;;;;;;4984578;28;19926;-80
2022/01/07 04:12:40;;;;;;;;;;;-0.80;99.90;;;;;;4983752;28;19930;-82
2022/01/07 04:15:08;;;;;;;;;;;-0.60;99.90;;;;;;4977040;28;20428;-82
2022/01/07 04:17:35;;;;;;;;;;;-0.20;99.90;;;;;;4976603;28;19926;-82
2022/01/07 04:20:03;;;;;;;;;;;-0.40;99.90;;;;;;4975947;28;19949;-82
2022/01/07 04:22:30;;;;;;;;;;;-0.30;99.90;;;;;;4977821;28;19926;-82
2022/01/07 04:24:56;;;;;;;;;;;-0.40;99.90;;;;;;4978807;28;20350;-82
2022/01/07 04:27:23;;;;;;;;;;;-0.40;99.90;;;;;;4978843;28;20397;-81
2022/01/07 04:29:49;;;;;;;;;;;-0.10;99.90;;;;;;4978285;28;20458;-82
2022/01/07 04:32:16;;;;;;;;;;;-0.30;99.90;;;;;;4978792;28;20389;-82
2022/01/07 04:34:42;;;;;;;;;;;-0.10;99.90;;;;;;4991596;28;19926;-80
2022/01/07 04:37:10;;;;;;;;;;;-0.30;99.90;;;;;;4995981;28;19933;-80
2022/01/07 04:39:37;;;;;;;;;;;-0.20;99.90;;;;;;4997077;28;19922;-82
2022/01/07 04:42:03;;;;;;;;;;;-0.20;99.90;;;;;;4993717;28;19926;-79
2022/01/07 04:44:30;;;;;;;;;;;-0.20;99.90;;;;;;4996173;28;19937;-79
2022/01/07 04:46:56;;;;;;;;;;;-0.40;99.90;;;;;;4993870;28;19941;-80
2022/01/07 04:49:23;;;;;;;;;;;-0.40;99.90;;;;;;4996317;28;19933;-80
2022/01/07 04:51:49;;;;;;;;;;;-0.30;99.90;;;;;;4995458;28;19952;-79
2022/01/07 04:54:17;;;;;;;;;;;-0.10;99.90;;;;;;4995397;28;19926;-79
2022/01/07 04:56:44;;;;;;;;;;;-0.40;99.90;;;;;;4996923;28;19937;-79
2022/01/07 04:59:10;;;;;;;;;;;0.00;99.90;;;;;;4998734;28;19914;-80
2022/01/07 05:01:37;;;;;;;;;;;-0.40;99.90;;;;;;4998415;28;19937;-81
2022/01/07 05:04:03;;;;;;;;;;;-0.10;99.90;;;;;;4998908;28;19914;-80
2022/01/07 05:06:45;;;;;;;;;;;-0.20;99.90;;;;;;4998522;28;19926;-80
2022/01/07 05:09:12;;;;;;;;;;;-0.10;99.90;;;;;;4998507;28;20004;-79
2022/01/07 05:11:40;;;;;;;;;;;0.00;99.90;;;;;;4998412;28;19910;-80
2022/01/07 05:14:06;;;;;;;;;;;-0.20;99.90;;;;;;4995967;28;19927;-80
2022/01/07 05:16:33;;;;;;;;;;;-0.30;99.90;;;;;;5013064;22;19934;-78
2022/01/07 05:18:59;;;;;;;;;;;-0.30;99.90;;;;;;5081138;28;19994;-79
2022/01/07 05:21:26;;;;;;;;;;;0.10;99.90;;;;;;5081008;28;19960;-79
2022/01/07 05:23:52;;;;;;;;;;;0.00;99.90;;;;;;5081764;28;19925;-79
2022/01/07 05:26:19;;;;;;;;;;;0.00;99.90;;;;;;5080646;28;19983;-78
2022/01/07 05:28:46;;;;;;;;;;;0.00;99.90;;;;;;5079873;28;19978;-79
2022/01/07 05:31:13;;;;;;;;;;;0.30;99.90;;;;;;5080737;28;19976;-79
2022/01/07 05:33:39;;;;;;;;;;;0.20;99.90;;;;;;5081433;28;19924;-78
2022/01/07 05:36:06;;;;;;;;;;;0.20;99.90;;;;;;5080199;28;19974;-79
2022/01/07 05:38:32;;;;;;;;;;;0.20;99.90;;;;;;5079877;28;19931;-79
2022/01/07 05:40:59;;;;;;;;;;;0.30;99.90;;;;;;5080564;28;19958;-79
2022/01/07 05:43:26;;;;;;;;;;;0.10;99.90;;;;;;5078400;28;19959;-79
2022/01/07 05:45:54;;;;;;;;;;;0.80;99.90;;;;;;5078000;28;19924;-79
2022/01/07 05:48:20;;;;;;;;;;;0.10;99.90;;;;;;5080480;28;19924;-79
2022/01/07 05:50:47;;;;;;;;;;;0.20;99.90;;;;;;5085751;28;20402;-80
2022/01/07 05:53:13;;;;;;;;;;;0.20;99.90;;;;;;5084905;28;19988;-80
2022/01/07 05:55:40;;;;;;;;;;;0.00;99.90;;;;;;5084565;28;19924;-80
2022/01/07 05:58:07;;;;;;;;;;;0.10;99.90;;;;;;5082015;28;19968;-79
2022/01/07 06:00:33;;;;;;;;;;;0.30;99.90;;;;;;5081194;28;20390;-80
2022/01/07 06:03:02;;;;;;;;;;;0.10;99.90;;;;;;5080319;28;19954;-79
2022/01/07 06:05:28;;;;;;;;;;;0.30;99.90;;;;;;5080657;28;19928;-79
2022/01/07 06:07:54;;;;;;;;;;;0.50;99.90;;;;;;5080478;28;20329;-79
2022/01/07 06:10:21;;;;;;;;;;;0.40;99.90;;;;;;5082366;28;19924;-80
2022/01/07 06:12:47;;;;;;;;;;;0.30;99.90;;;;;;5080248;28;19950;-80
2022/01/07 06:15:14;;;;;;;;;;;0.30;99.90;;;;;;5080202;28;19962;-80
2022/01/07 06:17:41;;;;;;;;;;;0.30;99.90;;;;;;5079727;28;19950;-79
2022/01/07 06:20:09;;;;;;;;;;;0.40;99.90;;;;;;5080596;28;19929;-80
2022/01/07 06:22:36;;;;;;;;;;;0.50;99.90;;;;;;5080167;28;19924;-80
2022/01/07 06:25:03;;;;;;;;;;;0.30;99.90;;;;;;5090427;28;19951;-80
2022/01/07 06:27:30;;;;;;;;;;;0.40;99.90;;;;;;5080956;28;20329;-81
2022/01/07 06:29:57;;;;;;;;;;;0.60;99.90;;;;;;5083275;28;19963;-78
2022/01/07 06:32:23;;;;;;;;;;;0.50;99.90;;;;;;5084861;28;19924;-80
2022/01/07 06:34:50;;;;;;;;;;;0.40;99.90;;;;;;5079739;28;19924;-80
2022/01/07 06:37:18;;;;;;;;;;;0.40;99.90;;;;;;5080141;28;19924;-80
2022/01/07 06:39:44;;;;;;;;;;;0.20;99.90;;;;;;5080081;28;19967;-79
2022/01/07 06:42:11;;;;;;;;;;;0.60;99.90;;;;;;5080916;28;19924;-80
2022/01/07 06:44:37;;;;;;;;;;;0.50;99.90;;;;;;5080470;28;19925;-79
2022/01/07 06:47:04;;;;;;;;;;;0.50;99.90;;;;;;5080996;28;19974;-79
2022/01/07 06:49:31;;;;;;;;;;;0.30;99.90;;;;;;5079837;28;19978;-79
2022/01/07 06:51:58;;;;;;;;;;;0.50;99.90;;;;;;5082513;28;19950;-80
2022/01/07 06:54:27;;;;;;;;;;;0.60;99.90;;;;;;5082040;28;19996;-80
2022/01/07 06:56:53;;;;;;;;;;;0.60;99.90;;;;;;5083691;28;19991;-82
2022/01/07 06:59:20;;;;;;;;;;;0.40;99.90;;;;;;5087998;28;19924;-78
2022/01/07 07:01:47;;;;;;;;;;;0.50;99.90;;;;;;5085656;28;19931;-78
2022/01/07 07:04:14;;;;;;;;;;;0.40;99.90;;;;;;5086970;28;19947;-78
2022/01/07 07:06:40;;;;;;;;;;;0.30;99.90;;;;;;5084985;28;19978;-79
2022/01/07 07:09:07;;;;;;;;;;;0.60;99.90;;;;;;5076872;28;19925;-80
2022/01/07 07:11:35;;;;;;;;;;;0.40;99.90;;;;;;5076763;28;19960;-80
2022/01/07 07:14:03;;;;;;;;;;;;;;;;;;5076334;28;19924;-79
2022/01/07 07:16:30;;;;;;;;;;;0.50;99.90;;;;;;5079025;28;19960;-80
2022/01/07 07:18:56;;;;;;;;;;;0.50;99.90;;;;;;5078423;28;19928;-79
2022/01/07 07:21:22;;;;;;;;;;;1.10;99.90;;;;;;5077244;28;20007;-80
2022/01/07 07:23:49;;;;;;;;;;;0.50;99.90;;;;;;5078687;28;19950;-80
2022/01/07 07:26:15;;;;;;;;;;;0.50;99.90;;;;;;5078121;28;19954;-79
2022/01/07 07:28:43;;;;;;;;;;;0.60;99.90;;;;;;5078851;28;19924;-80
2022/01/07 07:31:13;;;;;;;;;;;;;;;;;;5078530;28;19925;-78
2022/01/07 07:36:30;;;;;;;;;;;0.60;99.90;;;;;;5075614;28;19935;-80
2022/01/07 07:38:57;;;;;;;;;;;1.10;99.90;;;;;;5077730;28;19947;-79
2022/01/07 07:41:24;;;;;;;;;;;0.80;99.90;;;;;;5079322;28;19925;-79
2022/01/07 07:43:52;;;;;;;;;;;0.90;99.90;;;;;;5087169;28;19939;-78
2022/01/07 07:46:19;;;;;;;;;;;0.80;99.90;;;;;;5083242;28;19993;-80
2022/01/07 07:48:46;;;;;;;;;;;0.70;99.90;;;;;;5078019;28;20358;-78
2022/01/07 07:51:12;;;;;;;;;;;0.90;99.90;;;;;;5077942;28;19974;-79
2022/01/07 07:53:39;;;;;;;;;;;0.60;99.90;;;;;;5078584;28;19982;-79
2022/01/07 07:56:05;;;;;;;;;;;1.00;99.90;;;;;;5078878;28;19960;-78
2022/01/07 07:58:32;;;;;;;;;;;0.70;99.90;;;;;;5082216;28;19936;-79
2022/01/07 08:01:02;;;;;;;;;;;1.30;99.90;;;;;;5082789;28;19956;-78
2022/01/07 08:03:29;;;;;;;;;;;1.10;99.90;;;;;;5091639;28;19924;-80
2022/01/07 08:05:55;;;;;;;;;;;0.80;99.90;;;;;;5097134;28;19912;-79
2022/01/07 08:08:21;;;;;;;;;;;1.40;99.90;;;;;;5098185;28;19932;-79
2022/01/07 08:10:50;;;;;;;;;;;1.10;99.90;;;;;;5089580;28;19924;-79
2022/01/07 08:13:29;;;;;;;;;;;1.40;99.90;;;;;;5083538;28;19925;-78
2022/01/07 08:16:02;;;;;;;;;;;1.10;99.90;;;;;;5082267;28;19924;-80
2022/01/07 08:18:30;;;;;;;;;;;1.10;99.80;;;;;;5082030;28;19920;-79
2022/01/07 08:20:57;;;;;;;;;;;1.30;98.10;;;;;;5082364;28;19959;-79
2022/01/07 08:23:24;;;;;;;;;;;1.10;98.30;;;;;;5082690;28;19960;-79
2022/01/07 08:25:51;;;;;;;;;;;1.20;99.90;;;;;;5082608;28;19925;-80
2022/01/07 08:28:18;;;;;;;;;;;1.20;87.70;;;;;;5082048;28;19963;-80
2022/01/07 08:31:12;;;;;;;;;;;1.60;78.90;;;;;;5081983;28;19996;-81
2022/01/07 08:36:26;;;;;;;;;;;1.10;62.70;;;;;;5082184;28;20279;-79
2022/01/07 08:38:53;;;;;;;;;;;1.10;71.30;;;;;;5082377;28;20299;-80
2022/01/07 08:41:21;;;;;;;;;;;1.40;68.50;;;;;;5082240;28;19924;-80
2022/01/07 08:43:48;;;;;;;;;;;1.30;59.50;;;;;;5081634;28;20378;-80
2022/01/07 08:46:14;;;;;;;;;;;1.60;36.40;;;;;;5081914;28;19978;-78
2022/01/07 08:48:42;;;;;;;;;;;1.50;34.50;;;;;;5081953;28;20008;-79
2022/01/07 08:51:09;;;;;;;;;;;1.70;15.00;;;;;;5081187;28;19971;-79
2022/01/07 08:53:36;;;;;;;;;;;1.40;1.00;;;;;;5080931;28;19967;-79
2022/01/07 08:56:02;;;;;;;;;;;1.30;19.50;;;;;;5081936;28;19942;-79
2022/01/07 08:58:29;;;;;;;;;;;1.30;8.30;;;;;;5080733;28;19964;-80
2022/01/07 09:00:56;;;;;;;;;;;1.70;21.20;;;;;;5080987;28;19947;-81
2022/01/07 09:03:23;;;;;;;;;;;1.30;22.50;;;;;;5081135;28;19924;-79
2022/01/07 09:05:51;;;;;;;;;;;1.50;39.20;;;;;;5081156;28;20323;-79
2022/01/07 09:08:17;;;;;;;;;;;1.50;20.30;;;;;;5080409;28;20391;-80
2022/01/07 09:10:44;;;;;;;;;;;1.50;12.60;;;;;;5086183;28;19976;-78
2022/01/07 09:13:11;;;;;;;;;;;1.60;14.50;;;;;;5089053;28;19928;-79
2022/01/07 09:15:37;;;;;;;;;;;1.80;23.20;;;;;;5090169;28;19947;-78
2022/01/07 09:18:09;;;;;;;;;;;1.70;16.30;;;;;;5087361;28;19970;-80
2022/01/07 09:20:36;;;;;;;;;;;1.80;8.10;;;;;;5084802;28;19931;-77
2022/01/07 09:23:04;;;;;;;;;;;1.60;1.00;;;;;;5084487;28;19964;-78
2022/01/07 09:25:30;;;;;;;;;;;1.80;6.60;;;;;;5085210;28;19932;-77
2022/01/07 09:27:56;;;;;;;;;;;2.00;1.00;;;;;;5083517;28;19924;-78
2022/01/07 09:30:23;;;;;;;;;;;2.10;1.00;;;;;;5083853;28;20397;-78
2022/01/07 09:32:49;;;;;;;;;;;1.80;1.00;;;;;;5084726;28;19928;-79
2022/01/07 09:35:16;;;;;;;;;;;2.00;1.00;;;;;;5080518;28;20379;-79
2022/01/07 09:37:43;;;;;;;;;;;2.10;1.00;;;;;;5079285;28;19931;-79
2022/01/07 09:40:12;;;;;;;;;;;1.80;1.00;;;;;;5080031;28;19956;-80
2022/01/07 09:42:39;;;;;;;;;;;2.10;1.00;;;;;;5081079;28;19935;-79
2022/01/07 09:45:06;;;;;;;;;;;2.10;1.00;;;;;;5081508;28;19967;-79
2022/01/07 09:47:32;;;;;;;;;;;2.20;1.00;;;;;;5082277;28;19924;-79
2022/01/07 09:49:59;;;;;;;;;;;2.20;1.00;;;;;;5081362;28;19925;-80
2022/01/07 09:52:25;;;;;;;;;;;2.10;1.00;;;;;;5081038;28;19967;-79
2022/01/07 09:54:52;;;;;;;;;;;2.10;1.00;;;;;;5081529;28;20009;-79
2022/01/07 09:57:20;;;;;;;;;;;2.30;1.00;;;;;;5085475;28;19984;-78
2022/01/07 09:59:52;;;;;;;;;;;2.60;1.00;;;;;;5086100;28;19985;-79
2022/01/07 10:02:18;;;;;;;;;;;2.30;1.00;;;;;;5085381;28;19924;-79
2022/01/07 10:04:45;;;;;;;;;;;2.10;1.00;;;;;;5082419;28;19963;-79
2022/01/07 10:07:13;;;;;;;;;;;2.50;1.00;;;;;;5080473;28;20365;-80
2022/01/07 10:09:40;;;;;;;;;;;2.60;1.00;;;;;;5081161;28;19950;-80
2022/01/07 10:12:07;;;;;;;;;;;2.40;1.00;;;;;;5080529;28;19925;-80
2022/01/07 10:14:36;;;;;;;;;;;2.50;1.00;;;;;;5080242;28;19979;-80
2022/01/07 10:17:04;;;;;;;;;;;2.30;99.90;;;;;;5079537;28;21916;-80
2022/01/07 10:19:31;;;;;;;;;;;2.70;99.90;;;;;;5079419;28;19924;-80
2022/01/07 10:21:58;;;;;;;;;;;2.50;1.00;;;;;;5080461;28;19925;-80
2022/01/07 10:24:25;;;;;;;;;;;2.50;99.90;;;;;;5079704;28;19989;-80
2022/01/07 10:27:06;;;;;;;;;;;2.80;99.90;;;;;;5080033;28;20085;-79
2022/01/07 10:29:37;;;;;;;;;;;3.00;1.00;;;;;;5083459;28;20332;-79
2022/01/07 10:35:06;;;;;;;;;;;3.10;1.00;;;;;;5103555;28;19968;-79
2022/01/07 10:37:33;;;;;;;;;;;3.30;1.00;;;;;;5103349;28;19925;-78
2022/01/07 10:39:59;;;;;;;;;;;3.20;45.90;;;;;;5103204;28;19928;-79
2022/01/07 10:42:27;;;;;;;;;;;2.90;1.00;;;;;;5098161;28;20403;-79
2022/01/07 10:47:36;;;;;;;;;;;3.20;1.00;;;;;;5099711;28;19924;-83
2022/01/07 10:50:17;;;;;;;;;;;3.20;99.90;;;;;;5099504;28;19960;-81
2022/01/07 10:52:49;;;;;;;;;;;3.20;1.00;;;;;;5097835;28;19991;-83
2022/01/07 10:55:23;;;;;;;;;;;3.20;99.90;;;;;;5097962;28;19924;-82
2022/01/07 10:58:04;;;;;;;;;;;;;;;;;;;;;
2022/01/07 11:00:41;;;;;;;;;;;3.20;1.00;;;;;;5102739;28;19931;-81
2022/01/07 11:03:08;;;;;;;;;;;3.30;1.00;;;;;;5104715;28;19925;-81
2022/01/07 11:05:41;;;;;;;;;;;3.40;99.90;;;;;;5105889;28;20377;-80
2022/01/07 11:08:13;;;;;;;;;;;3.30;1.00;;;;;;5107533;28;19924;-83
2022/01/07 11:10:46;;;;;;;;;;;3.40;1.00;;;;;;5106615;28;19924;-82
2022/01/07 11:13:21;;;;;;;;;;;3.30;1.00;;;;;;5106637;28;19933;-82
2022/01/07 11:15:54;;;;;;;;;;;3.50;1.00;;;;;;5104696;28;19955;-82
2022/01/07 11:18:24;;;;;;;;;;;3.40;99.90;;;;;;5103644;28;19963;-83
2022/01/07 11:20:58;;;;;;;;;;;3.40;1.00;;;;;;5099092;28;19931;-82
2022/01/07 11:23:28;;;;;;;;;;;3.50;1.00;;;;;;5096611;28;19970;-82
2022/01/07 11:26:00;;;;;;;;;;;3.80;1.00;;;;;;5096352;28;19924;-83
2022/01/07 11:28:32;;;;;;;;;;;3.50;1.00;;;;;;5097215;28;19947;-82
2022/01/07 11:31:03;;;;;;;;;;;3.40;1.00;;;;;;5096981;28;19978;-81
2022/01/07 11:33:33;;;;;;;;;;;3.40;1.00;;;;;;5098948;28;20337;-80
2022/01/07 11:36:01;;;;;;;;;;;3.40;1.00;;;;;;5108466;28;19928;-81
2022/01/07 11:38:44;;;;;;;;;;;3.40;1.00;;;;;;5113519;28;19912;-79
2022/01/07 11:44:59;;;;;;;;;;;3.50;99.90;;;;;;5093911;28;19904;-83
2022/01/07 11:51:10;;;;;;;;;;;3.40;1.00;;;;;;4983999;28;19979;-82
2022/01/07 11:54:09;;;;;;;;;;;;;;;;;;;;;
2022/01/07 11:57:13;;;;;;;;;;;3.50;95.80;;;;;;5022246;28;19926;-83
2022/01/07 12:00:41;;;;;;;;;;;;;;;;;;;;;
2022/01/07 12:03:38;;;;;;;;;;;;;;;;;;;;;
2022/01/07 12:12:28;;;;;;;;;;;;;;;;;;;;;
2022/01/07 12:18:37;;;;;;;;;;;3.20;1.00;;;;;;5084273;28;19925;-82
2022/01/07 12:27:34;;;;;;;;;;;3.30;12.00;;;;;;4927383;28;19928;-81
2022/01/07 12:39:43;;;;;;;;;;;;;;;;;;;;;
2022/01/07 12:42:51;;;;;;;;;;;3.30;1.00;;;;;;5087550;28;19924;-82
2022/01/07 12:51:49;;;;;;;;;;;3.20;99.90;;;;;;5064680;28;20337;-82
2022/01/07 12:54:35;;;;;;;;;;;;;;;;;;;;;
2022/01/07 13:25:45;;;;;;;;;;;3.10;99.90;;;;;;4910996;29;19927;-83
2022/01/07 13:31:47;;;;;;;;;;;;;;;;;;;;;
2022/01/07 13:35:14;;;;;;;;;;;;;;;;;;;;;
2022/01/07 13:38:12;;;;;;;;;;;3.00;99.90;;;;;;4974443;28;20301;-83
2022/01/07 13:41:02;;;;;;;;;;;2.90;99.90;;;;;;5018396;28;19995;-82
2022/01/07 13:43:50;;;;;;;;;;;;;;;;;;5072053;28;20474;-82
2022/01/07 13:49:54;;;;;;;;;;;2.70;99.90;;;;;;5087310;28;19962;-83
2022/01/07 13:55:16;;;;;;;;;;;;;;;;;;;;;
2022/01/07 14:03:54;;;;;;;;;;;2.70;99.90;;;;;;5022043;28;19928;-84
2022/01/07 14:30:49;;;;;;;;;;;2.30;99.90;;;;;;4978006;28;19940;-82
2022/01/07 14:36:31;;;;;;;;;;;2.10;99.90;;;;;;5030290;23;20290;-81
2022/01/07 14:39:09;;;;;;;;;;;2.30;99.90;;;;;;5091756;28;19924;-78
2022/01/07 14:41:49;;;;;;;;;;;2.30;99.90;;;;;;5094020;28;19935;-80
2022/01/07 14:44:46;;;;;;;;;;;2.40;99.90;;;;;;5091708;28;19954;-80
2022/01/07 14:49:49;;;;;;;;;;;2.60;99.90;;;;;;4977643;28;20428;-80
2022/01/07 14:52:15;;;;;;;;;;;2.30;99.90;;;;;;4978640;28;19974;-78
2022/01/07 14:54:42;;;;;;;;;;;2.30;99.90;;;;;;4977357;28;20412;-77
2022/01/07 14:57:08;;;;;;;;;;;2.30;99.90;;;;;;4976408;28;19953;-80
2022/01/07 14:59:35;;;;;;;;;;;2.30;99.90;;;;;;4975947;28;20468;-79
2022/01/07 15:02:01;;;;;;;;;;;2.20;99.90;;;;;;4975974;28;19957;-79
2022/01/07 15:04:28;;;;;;;;;;;2.20;99.90;;;;;;4975316;28;19996;-78
2022/01/07 15:06:56;;;;;;;;;;;2.20;99.90;;;;;;4979895;28;19926;-77
2022/01/07 15:09:22;;;;;;;;;;;2.10;99.90;;;;;;4986020;28;19970;-77
2022/01/07 15:11:48;;;;;;;;;;;2.10;99.90;;;;;;4977835;28;19975;-79
2022/01/07 15:14:18;;;;;;;;;;;2.10;99.90;;;;;;4977931;28;19980;-78
2022/01/07 15:16:48;;;;;;;;;;;2.10;99.90;;;;;;4978018;28;19926;-79
2022/01/07 15:19:14;;;;;;;;;;;2.20;99.90;;;;;;4977048;28;19957;-79
2022/01/07 15:21:41;;;;;;;;;;;2.10;99.90;;;;;;4979746;28;19930;-79
2022/01/07 15:24:10;;;;;;;;;;;2.10;99.90;;;;;;4980162;28;19948;-79
2022/01/07 15:26:37;;;;;;;;;;;2.10;99.90;;;;;;4979494;28;19926;-79
2022/01/07 15:29:04;;;;;;;;;;;2.10;99.90;;;;;;4980488;28;19958;-79
2022/01/07 15:31:31;;;;;;;;;;;2.10;99.90;;;;;;4980022;28;19930;-79
2022/01/07 15:33:57;;;;;;;;;;;2.10;99.90;;;;;;4980134;28;19938;-80
2022/01/07 15:36:25;;;;;;;;;;;2.10;99.90;;;;;;4980642;28;19936;-80
2022/01/07 15:38:52;;;;;;;;;;;2.10;99.90;;;;;;4980264;28;19977;-80
2022/01/07 15:41:20;;;;;;;;;;;2.10;99.90;;;;;;4981067;28;19926;-79
2022/01/07 15:43:46;;;;;;;;;;;2.20;99.90;;;;;;4980676;28;19926;-79
2022/01/07 15:46:12;;;;;;;;;;;2.20;99.90;;;;;;4980335;28;19937;-79
2022/01/07 15:48:39;;;;;;;;;;;2.10;99.90;;;;;;4979441;28;19973;-79
2022/01/07 15:51:08;;;;;;;;;;;2.10;99.90;;;;;;4988428;28;19933;-79
2022/01/07 15:53:34;;;;;;;;;;;2.10;99.90;;;;;;4987825;28;19933;-79
2022/01/07 15:56:01;;;;;;;;;;;2.10;99.90;;;;;;4986758;28;20023;-80
2022/01/07 15:58:29;;;;;;;;;;;2.10;99.90;;;;;;4987323;28;19926;-80
2022/01/07 16:00:55;;;;;;;;;;;2.20;99.90;;;;;;4985432;28;19972;-78
2022/01/07 16:03:22;;;;;;;;;;;2.20;99.90;;;;;;4982581;28;20020;-79
2022/01/07 16:05:48;;;;;;;;;;;2.20;99.90;;;;;;4980932;28;20016;-79
2022/01/07 16:08:15;;;;;;;;;;;2.10;99.90;;;;;;4980888;28;19933;-79
2022/01/07 16:10:42;;;;;;;;;;;2.10;99.90;;;;;;4981137;28;20300;-78
2022/01/07 16:13:08;;;;;;;;;;;2.20;99.90;;;;;;4979685;28;19926;-79
2022/01/07 16:15:36;;;;;;;;;;;2.20;99.90;;;;;;4979043;28;20320;-79
2022/01/07 16:18:03;;;;;;;;;;;2.10;99.90;;;;;;4979978;28;19937;-80
2022/01/07 16:20:29;;;;;;;;;;;2.10;99.90;;;;;;4979536;28;19926;-80
2022/01/07 16:22:56;;;;;;;;;;;2.20;99.90;;;;;;4980763;28;19933;-80
2022/01/07 16:25:23;;;;;;;;;;;2.20;99.90;;;;;;4979424;28;20296;-80
2022/01/07 16:27:50;;;;;;;;;;;2.20;99.90;;;;;;4979218;28;19926;-79
2022/01/07 16:30:17;;;;;;;;;;;2.20;99.90;;;;;;4979410;28;19926;-80
2022/01/07 16:32:44;;;;;;;;;;;2.20;99.90;;;;;;4977788;28;19926;-79
2022/01/07 16:35:11;;;;;;;;;;;2.20;99.90;;;;;;4979403;28;19983;-80
2022/01/07 16:37:38;;;;;;;;;;;2.20;99.90;;;;;;4979728;28;20292;-81
2022/01/07 16:40:07;;;;;;;;;;;2.20;99.90;;;;;;4979529;28;19976;-79
2022/01/07 16:42:33;;;;;;;;;;;2.30;99.90;;;;;;4979723;28;19976;-80
2022/01/07 16:45:00;;;;;;;;;;;2.30;99.90;;;;;;4978773;28;19976;-79
2022/01/07 16:47:27;;;;;;;;;;;2.30;99.90;;;;;;4976391;28;19972;-80
2022/01/07 16:49:55;;;;;;;;;;;2.20;99.90;;;;;;4977383;28;19965;-79
2022/01/07 16:52:21;;;;;;;;;;;2.20;99.90;;;;;;4978379;28;19988;-79